To NAV CANADA Home Page Login to a new session Search on AWWS site Disclaimer Vers la page française équivalente Tips FAQ What's new on the site To the Forecasts and Observations / NOTAM section To "File a Flight Plan" website Publications and other links Update of the User's profile FIC Telephone Numbers My Weather Data Folder Route Weather Data Regional Weather Data Local Weather Data To the Forecasts and Observations / NOTAM section
Request Generated 02/17/2019 at 02:15:20 UTC . Weather information available at that time is displayed.

METAR/TAF

IQALUIT/NU    

METAR CYFB 170200Z VRB03KT 15SM -SN OVC006 M25/M28 A2998 RMK ST8 SLP160=
METAR CYFB 170100Z VRB03KT 15SM -SN OVC007 M26/M29 A3000 RMK ST8 SLP165=
METAR CYFB 170000Z VRB02KT 15SM -SN OVC006 M27/M30 A3000 RMK ST8 SLP166=

TAF CYFB 162338Z 1700/1724 VRB03KT P6SM FEW006 SCT012 TEMPO 1700/1712
P6SM -SN BKN006 OVC012
FM171200 32007KT P6SM SKC
RMK NXT FCST BY 170600Z=
Your time UTC time
Weather data provided by Environment Canada and NAV CANADA